Time;durP1;ratioP1;P1;durP2;ratioP2;P2;SDS_P1;SDS_P2;PMS_P1;PMS_P2;Temp;Humidity;BMP_temperature;BMP_pressure;BME280_temperature;BME280_humidity;BME280_pressure;Samples;Min_cycle;Max_cycle;Signal;HPM_P1;HPM_P2
2024/01/22 00:01:35;;;;;;;101.13;68.65;;;;;;;;;;4979455;28;20045;-68
2024/01/22 00:04:01;;;;;;;100.05;65.57;;;;;;;;;;4979254;28;20474;-67
2024/01/22 00:06:27;;;;;;;97.97;66.20;;;;;;;;;;4987225;28;20081;-67
2024/01/22 00:08:53;;;;;;;99.97;66.38;;;;;;;;;;4975312;28;20026;-67
2024/01/22 00:11:20;;;;;;;99.15;64.82;;;;;;;;;;4984315;28;20033;-69
2024/01/22 00:13:46;;;;;;;97.03;62.60;;;;;;;;;;4981491;28;20453;-69
2024/01/22 00:16:12;;;;;;;94.15;62.45;;;;;;;;;;4978932;28;20094;-67
2024/01/22 00:18:38;;;;;;;98.60;62.47;;;;;;;;;;4987663;28;20022;-68
2024/01/22 00:21:05;;;;;;;102.35;63.38;;;;;;;;;;4975174;28;20482;-68
2024/01/22 00:23:31;;;;;;;96.63;62.15;;;;;;;;;;4979472;28;20014;-68
2024/01/22 00:25:57;;;;;;;93.50;61.17;;;;;;;;;;4979956;28;20080;-68
2024/01/22 00:28:23;;;;;;;92.38;60.80;;;;;;;;;;4986142;28;20018;-68
2024/01/22 00:30:49;;;;;;;89.30;59.10;;;;;;;;;;4974456;28;20507;-68
2024/01/22 00:33:15;;;;;;;88.47;59.47;;;;;;;;;;4985483;28;20034;-68
2024/01/22 00:35:41;;;;;;;89.35;59.30;;;;;;;;;;4980672;28;20018;-68
2024/01/22 00:38:07;;;;;;;94.47;58.30;;;;;;;;;;4978554;28;20027;-68
2024/01/22 00:40:33;;;;;;;87.45;60.00;;;;;;;;;;4986740;28;20031;-68
2024/01/22 00:42:59;;;;;;;86.65;58.90;;;;;;;;;;4974913;28;20075;-68
2024/01/22 00:45:25;;;;;;;87.07;56.60;;;;;;;;;;4984039;28;20483;-67
2024/01/22 00:47:51;;;;;;;83.95;55.28;;;;;;;;;;4981514;28;20023;-68
2024/01/22 00:50:17;;;;;;;85.53;56.10;;;;;;;;;;4976490;28;20561;-67
2024/01/22 00:52:43;;;;;;;85.20;54.33;;;;;;;;;;4987588;28;20482;-68
2024/01/22 00:55:09;;;;;;;83.22;54.97;;;;;;;;;;4976016;28;20065;-70
2024/01/22 00:57:37;;;;;;;84.03;54.97;;;;;;;;;;4982012;28;20033;-69
2024/01/22 01:00:04;;;;;;;81.97;53.88;;;;;;;;;;4982500;28;20050;-69
2024/01/22 01:02:30;;;;;;;81.05;53.42;;;;;;;;;;4975359;28;20616;-68
2024/01/22 01:04:56;;;;;;;81.90;55.10;;;;;;;;;;4987722;28;20019;-68
2024/01/22 01:07:23;;;;;;;82.28;52.60;;;;;;;;;;4977562;28;20027;-67
2024/01/22 01:09:49;;;;;;;77.45;51.85;;;;;;;;;;4980207;28;20245;-67
2024/01/22 01:12:15;;;;;;;78.05;51.95;;;;;;;;;;4984708;28;20130;-68
2024/01/22 01:14:41;;;;;;;78.43;53.35;;;;;;;;;;4975755;28;20015;-68
2024/01/22 01:17:07;;;;;;;75.90;51.13;;;;;;;;;;4990223;28;20038;-68
2024/01/22 01:19:33;;;;;;;73.97;49.97;;;;;;;;;;4986668;28;20042;-68
2024/01/22 01:21:59;;;;;;;80.90;53.03;;;;;;;;;;4985765;28;20058;-68
2024/01/22 01:24:25;;;;;;;75.75;50.03;;;;;;;;;;4979413;28;20058;-68
2024/01/22 01:26:52;;;;;;;73.10;50.33;;;;;;;;;;4990669;28;20101;-68
2024/01/22 01:29:18;;;;;;;74.65;49.70;;;;;;;;;;4980534;28;20026;-68
2024/01/22 01:31:44;;;;;;;69.95;48.78;;;;;;;;;;4984234;28;20014;-69
2024/01/22 01:34:10;;;;;;;70.13;49.30;;;;;;;;;;4987228;28;20056;-68
2024/01/22 01:36:36;;;;;;;69.68;49.25;;;;;;;;;;4977907;28;20387;-68
2024/01/22 01:39:02;;;;;;;72.50;47.67;;;;;;;;;;4990380;28;20158;-68
2024/01/22 01:41:28;;;;;;;70.05;46.97;;;;;;;;;;4981168;28;20546;-69
2024/01/22 01:43:54;;;;;;;69.38;44.65;;;;;;;;;;4983184;28;20101;-68
2024/01/22 01:46:20;;;;;;;69.55;46.00;;;;;;;;;;4988464;28;20156;-68
2024/01/22 01:48:46;;;;;;;65.68;44.40;;;;;;;;;;4977812;28;20101;-69
2024/01/22 01:51:12;;;;;;;63.70;44.28;;;;;;;;;;4988069;28;20030;-69
2024/01/22 01:53:39;;;;;;;62.63;44.90;;;;;;;;;;4982861;28;20022;-69
2024/01/22 01:56:05;;;;;;;68.38;46.90;;;;;;;;;;4981614;28;20039;-69
2024/01/22 01:58:31;;;;;;;66.07;46.80;;;;;;;;;;4989728;28;20045;-69
2024/01/22 02:00:58;;;;;;;65.47;44.88;;;;;;;;;;4976839;28;20530;-69
2024/01/22 02:03:24;;;;;;;69.32;43.47;;;;;;;;;;4987240;28;20031;-68
2024/01/22 02:05:50;;;;;;;66.15;43.22;;;;;;;;;;4984103;28;20478;-69
2024/01/22 02:08:16;;;;;;;64.25;43.15;;;;;;;;;;4979664;28;20113;-68
2024/01/22 02:10:46;;;;;;;68.35;43.67;;;;;;;;;;4989427;28;20022;-69
2024/01/22 02:13:12;;;;;;;67.03;42.85;;;;;;;;;;4978894;28;20339;-69
2024/01/22 02:15:38;;;;;;;59.35;42.13;;;;;;;;;;4984809;28;20018;-69
2024/01/22 02:18:04;;;;;;;64.07;42.05;;;;;;;;;;4986585;28;20036;-69
2024/01/22 02:20:30;;;;;;;59.22;40.97;;;;;;;;;;4977174;28;20027;-69
2024/01/22 02:23:01;;;;;;;62.63;42.13;;;;;;;;;;4989851;28;20018;-70
2024/01/22 02:25:27;;;;;;;59.97;40.53;;;;;;;;;;4979134;28;20030;-68
2024/01/22 02:27:53;;;;;;;73.78;39.53;;;;;;;;;;4982522;28;20101;-68
2024/01/22 02:30:19;;;;;;;60.13;41.80;;;;;;;;;;4986897;28;20017;-68
2024/01/22 02:32:45;;;;;;;58.15;39.70;;;;;;;;;;4977086;28;20114;-69
2024/01/22 02:35:11;;;;;;;57.33;39.08;;;;;;;;;;4988248;28;20038;-69
2024/01/22 02:37:38;;;;;;;56.33;38.88;;;;;;;;;;4981894;28;20022;-69
2024/01/22 02:40:04;;;;;;;56.22;39.20;;;;;;;;;;4980285;28;20131;-68
2024/01/22 02:42:30;;;;;;;58.58;38.97;;;;;;;;;;4988836;28;20032;-68
2024/01/22 02:44:56;;;;;;;57.58;39.05;;;;;;;;;;4976664;28;20093;-69
2024/01/22 02:47:22;;;;;;;57.80;37.95;;;;;;;;;;4986471;28;20042;-67
2024/01/22 02:49:48;;;;;;;57.35;38.47;;;;;;;;;;4982551;28;20023;-69
2024/01/22 02:52:14;;;;;;;56.78;37.72;;;;;;;;;;4979343;28;20074;-68
2024/01/22 02:54:40;;;;;;;56.15;37.63;;;;;;;;;;4989345;28;20033;-68
2024/01/22 02:57:06;;;;;;;54.53;35.70;;;;;;;;;;4977156;28;20118;-68
2024/01/22 02:59:36;;;;;;;52.42;36.25;;;;;;;;;;4980740;28;20106;-68
2024/01/22 03:02:02;;;;;;;51.53;35.28;;;;;;;;;;4980342;28;20034;-67
2024/01/22 03:04:28;;;;;;;50.88;35.28;;;;;;;;;;4988277;28;20030;-68
2024/01/22 03:06:54;;;;;;;58.13;37.05;;;;;;;;;;4976201;28;20450;-68
2024/01/22 03:09:20;;;;;;;52.10;34.88;;;;;;;;;;4986203;28;20514;-68
2024/01/22 03:11:46;;;;;;;53.42;34.15;;;;;;;;;;4981740;28;20031;-69
2024/01/22 03:14:12;;;;;;;51.53;35.00;;;;;;;;;;4979135;28;20023;-68
2024/01/22 03:16:38;;;;;;;52.33;34.95;;;;;;;;;;4985362;28;20105;-69
2024/01/22 03:19:04;;;;;;;50.00;33.70;;;;;;;;;;4988467;28;20048;-69
2024/01/22 03:21:30;;;;;;;50.72;33.60;;;;;;;;;;4979357;28;20430;-69
2024/01/22 03:23:56;;;;;;;48.60;33.45;;;;;;;;;;4981208;28;20622;-68
2024/01/22 03:26:22;;;;;;;48.38;33.78;;;;;;;;;;4986802;28;20089;-72
2024/01/22 03:28:49;;;;;;;48.05;32.28;;;;;;;;;;4975836;28;20026;-70
2024/01/22 03:31:22;;;;;;;47.60;32.67;;;;;;;;;;4985904;28;20073;-70
2024/01/22 03:33:48;;;;;;;45.15;31.55;;;;;;;;;;4982332;28;20022;-69
2024/01/22 03:36:14;;;;;;;48.85;32.65;;;;;;;;;;4978356;28;20015;-69
2024/01/22 03:38:40;;;;;;;46.72;31.23;;;;;;;;;;4987683;28;20088;-69
2024/01/22 03:41:06;;;;;;;44.13;30.15;;;;;;;;;;4975869;28;20474;-68
2024/01/22 03:43:32;;;;;;;42.25;30.52;;;;;;;;;;4980332;28;20023;-68
2024/01/22 03:45:58;;;;;;;44.47;30.88;;;;;;;;;;4980383;28;20063;-68
2024/01/22 03:48:24;;;;;;;46.53;32.00;;;;;;;;;;4986932;28;20072;-68
2024/01/22 03:50:52;;;;;;;43.88;29.63;;;;;;;;;;4974863;28;20101;-68
2024/01/22 03:53:18;;;;;;;42.00;29.38;;;;;;;;;;4985821;28;20050;-68
2024/01/22 03:55:44;;;;;;;45.80;29.90;;;;;;;;;;4981414;28;20030;-68
2024/01/22 03:58:11;;;;;;;41.88;29.80;;;;;;;;;;4978593;28;20073;-68
2024/01/22 04:00:37;;;;;;;43.80;29.85;;;;;;;;;;4986150;28;20105;-70
2024/01/22 04:03:03;;;;;;;41.55;29.90;;;;;;;;;;4975848;28;20018;-69
2024/01/22 04:05:29;;;;;;;42.33;28.42;;;;;;;;;;4984063;28;20094;-69
2024/01/22 04:07:55;;;;;;;44.63;28.90;;;;;;;;;;4982561;28;20058;-69
2024/01/22 04:10:22;;;;;;;42.65;28.40;;;;;;;;;;4976370;28;20070;-69
2024/01/22 04:12:48;;;;;;;41.05;29.17;;;;;;;;;;4987843;28;20049;-69
2024/01/22 04:15:14;;;;;;;43.35;28.50;;;;;;;;;;4977165;28;20090;-68
2024/01/22 04:17:40;;;;;;;36.83;25.25;;;;;;;;;;4987385;28;20029;-69
2024/01/22 04:20:06;;;;;;;36.80;26.70;;;;;;;;;;4978223;28;20554;-68
2024/01/22 04:22:33;;;;;;;41.50;27.48;;;;;;;;;;4987863;28;20022;-68
2024/01/22 04:24:59;;;;;;;43.05;27.20;;;;;;;;;;4975111;28;20034;-69
2024/01/22 04:27:25;;;;;;;38.63;26.48;;;;;;;;;;4984383;28;20026;-68
2024/01/22 04:29:51;;;;;;;38.00;26.98;;;;;;;;;;4981215;28;20030;-68
2024/01/22 04:32:17;;;;;;;38.85;26.35;;;;;;;;;;4977362;28;20395;-66
2024/01/22 04:34:43;;;;;;;38.53;26.25;;;;;;;;;;4987640;28;20010;-67
2024/01/22 04:37:09;;;;;;;50.17;26.25;;;;;;;;;;4976449;28;20034;-66
2024/01/22 04:39:35;;;;;;;35.85;24.92;;;;;;;;;;4983003;28;20078;-67
2024/01/22 04:42:01;;;;;;;34.92;25.10;;;;;;;;;;4975309;28;20030;-67
2024/01/22 04:44:28;;;;;;;40.28;24.70;;;;;;;;;;4986656;28;20136;-67
2024/01/22 04:46:55;;;;;;;38.55;24.67;;;;;;;;;;4974627;28;20022;-67
2024/01/22 04:49:21;;;;;;;39.40;24.17;;;;;;;;;;4986806;28;20103;-68
2024/01/22 04:51:47;;;;;;;35.13;23.77;;;;;;;;;;4984687;28;20080;-69
2024/01/22 04:54:13;;;;;;;38.78;25.65;;;;;;;;;;4981644;28;20023;-69
2024/01/22 04:56:45;;;;;;;38.58;24.15;;;;;;;;;;4991338;28;20037;-69
2024/01/22 04:59:11;;;;;;;;;;;;;;;;;;4980536;28;20027;-67
2024/01/22 05:01:37;;;;;;;32.85;23.25;;;;;;;;;;4985835;28;19965;-69
2024/01/22 05:04:03;;;;;;;35.13;22.52;;;;;;;;;;4986899;28;20073;-68
2024/01/22 05:06:29;;;;;;;33.15;22.38;;;;;;;;;;4979369;28;20106;-67
2024/01/22 05:08:55;;;;;;;36.22;22.52;;;;;;;;;;4991184;28;20105;-68
2024/01/22 05:11:22;;;;;;;35.15;23.52;;;;;;;;;;4980330;28;20504;-69
2024/01/22 05:13:57;;;;;;;34.40;21.58;;;;;;;;;;4984816;28;20098;-67
2024/01/22 05:16:23;;;;;;;32.72;21.88;;;;;;;;;;4987138;28;20023;-68
2024/01/22 05:18:49;;;;;;;39.30;22.55;;;;;;;;;;4990920;28;20049;-69
2024/01/22 05:21:16;;;;;;;32.38;21.13;;;;;;;;;;4979605;28;20018;-68
2024/01/22 05:23:42;;;;;;;31.00;22.15;;;;;;;;;;4985489;28;20057;-68
2024/01/22 05:26:08;;;;;;;30.67;19.67;;;;;;;;;;4987076;28;20037;-66
2024/01/22 05:28:34;;;;;;;29.10;20.52;;;;;;;;;;4978234;28;20098;-68
2024/01/22 05:31:01;;;;;;;35.97;20.90;;;;;;;;;;4977365;28;20182;-69
2024/01/22 05:33:27;;;;;;;31.13;21.35;;;;;;;;;;4992100;28;20473;-69
2024/01/22 05:35:53;;;;;;;28.30;19.20;;;;;;;;;;4983584;28;20034;-70
2024/01/22 05:38:19;;;;;;;33.58;20.85;;;;;;;;;;4988249;28;20492;-70
2024/01/22 05:40:45;;;;;;;33.00;19.90;;;;;;;;;;4977281;28;20031;-72
2024/01/22 05:43:11;;;;;;;34.28;21.42;;;;;;;;;;4988948;28;20023;-73
2024/01/22 05:45:37;;;;;;;47.97;20.63;;;;;;;;;;4982616;28;20038;-73
2024/01/22 05:48:04;;;;;;;34.83;20.65;;;;;;;;;;4981735;28;20034;-72
2024/01/22 05:50:30;;;;;;;34.10;20.65;;;;;;;;;;4988881;28;20025;-73
2024/01/22 05:52:56;;;;;;;35.85;20.63;;;;;;;;;;4977642;28;20024;-72
2024/01/22 05:55:22;;;;;;;33.88;19.85;;;;;;;;;;4987126;28;20069;-73
2024/01/22 05:57:48;;;;;;;42.28;20.75;;;;;;;;;;4983756;28;20113;-70
2024/01/22 06:00:15;;;;;;;39.47;20.35;;;;;;;;;;4978596;28;20090;-70
2024/01/22 06:02:41;;;;;;;41.08;19.42;;;;;;;;;;4990362;28;20023;-70
2024/01/22 06:05:09;;;;;;;43.65;19.48;;;;;;;;;;4978330;28;20097;-67
2024/01/22 06:07:36;;;;;;;28.92;18.90;;;;;;;;;;4985142;28;20372;-66
2024/01/22 06:10:02;;;;;;;40.22;20.80;;;;;;;;;;4984739;28;20483;-67
2024/01/22 06:12:28;;;;;;;60.42;20.65;;;;;;;;;;4976890;28;20041;-66
2024/01/22 06:14:54;;;;;;;44.13;19.73;;;;;;;;;;4989612;28;20026;-66
2024/01/22 06:17:20;;;;;;;45.65;19.40;;;;;;;;;;4980955;28;20018;-66
2024/01/22 06:19:46;;;;;;;43.67;19.17;;;;;;;;;;4983408;28;20053;-65
2024/01/22 06:22:12;;;;;;;34.00;17.90;;;;;;;;;;4986329;28;20439;-66
2024/01/22 06:24:39;;;;;;;36.50;17.83;;;;;;;;;;4976920;28;20454;-68
2024/01/22 06:27:05;;;;;;;40.75;18.92;;;;;;;;;;4988946;28;20406;-69
2024/01/22 06:29:31;;;;;;;30.35;18.08;;;;;;;;;;4980750;28;20018;-70
2024/01/22 06:31:58;;;;;;;29.75;17.58;;;;;;;;;;4984857;28;20072;-70
2024/01/22 06:34:24;;;;;;;37.40;18.15;;;;;;;;;;4981196;28;20073;-70
2024/01/22 06:36:50;;;;;;;40.88;18.90;;;;;;;;;;4989317;28;20121;-71
2024/01/22 06:39:16;;;;;;;33.28;18.50;;;;;;;;;;4978880;28;20033;-70
2024/01/22 06:41:42;;;;;;;21.40;13.30;;;;;;;;;;4988029;28;20056;-70
2024/01/22 06:44:08;;;;;;;37.10;17.02;;;;;;;;;;4980016;28;20030;-70
2024/01/22 06:46:34;;;;;;;32.53;14.88;;;;;;;;;;4989053;28;20026;-69
2024/01/22 06:49:00;;;;;;;45.13;16.70;;;;;;;;;;4976587;28;20107;-68
2024/01/22 06:51:26;;;;;;;32.17;16.10;;;;;;;;;;4985071;28;20027;-70
2024/01/22 06:53:52;;;;;;;31.63;14.85;;;;;;;;;;4983455;28;20046;-69
2024/01/22 06:56:18;;;;;;;37.42;14.32;;;;;;;;;;4978523;28;20062;-69
2024/01/22 06:58:44;;;;;;;35.40;14.85;;;;;;;;;;4988973;28;20541;-69
2024/01/22 07:01:10;;;;;;;34.75;14.40;;;;;;;;;;4975837;28;20030;-70
2024/01/22 07:03:36;;;;;;;28.35;13.75;;;;;;;;;;4982080;28;20027;-69
2024/01/22 07:06:03;;;;;;;12.55;8.95;;;;;;;;;;4974592;28;20031;-71
2024/01/22 07:08:29;;;;;;;10.50;7.68;;;;;;;;;;4972720;28;20019;-71
2024/01/22 07:10:55;;;;;;;11.23;8.45;;;;;;;;;;4971816;28;20087;-71
2024/01/22 07:13:22;;;;;;;11.65;8.10;;;;;;;;;;4970674;28;20459;-69
2024/01/22 07:15:48;;;;;;;11.13;8.15;;;;;;;;;;4973291;28;20102;-70
2024/01/22 07:18:14;;;;;;;15.57;7.82;;;;;;;;;;4973255;28;20130;-71
2024/01/22 07:20:40;;;;;;;10.93;7.60;;;;;;;;;;4972391;28;20041;-70
2024/01/22 07:23:06;;;;;;;15.63;7.90;;;;;;;;;;4973182;28;20023;-71
2024/01/22 07:25:36;;;;;;;10.32;7.28;;;;;;;;;;4972593;28;20030;-70
2024/01/22 07:28:03;;;;;;;10.65;6.60;;;;;;;;;;4972486;28;20541;-74
2024/01/22 07:30:29;;;;;;;11.75;6.68;;;;;;;;;;4971096;28;20027;-71
2024/01/22 07:32:55;;;;;;;8.57;6.05;;;;;;;;;;4972766;28;20085;-71
2024/01/22 07:35:21;;;;;;;9.38;5.90;;;;;;;;;;4972748;28;20029;-71
2024/01/22 07:37:47;;;;;;;10.10;6.00;;;;;;;;;;4972559;28;20023;-71
2024/01/22 07:40:13;;;;;;;10.40;6.18;;;;;;;;;;4971165;28;20378;-70
2024/01/22 07:42:41;;;;;;;10.05;5.70;;;;;;;;;;4972967;28;20022;-71
2024/01/22 07:45:07;;;;;;;8.80;5.10;;;;;;;;;;4973048;28;20467;-71
2024/01/22 07:47:34;;;;;;;9.20;5.65;;;;;;;;;;4972897;28;20077;-71
2024/01/22 07:50:00;;;;;;;7.88;5.68;;;;;;;;;;4972189;28;20487;-71
2024/01/22 07:52:26;;;;;;;14.60;5.20;;;;;;;;;;4972843;28;20026;-71
2024/01/22 07:54:53;;;;;;;7.75;5.05;;;;;;;;;;4972607;28;20031;-71
2024/01/22 07:57:19;;;;;;;8.95;5.38;;;;;;;;;;4972373;28;20081;-70
2024/01/22 07:59:46;;;;;;;8.82;4.90;;;;;;;;;;4972501;28;20050;-71
2024/01/22 08:02:12;;;;;;;5.82;4.30;;;;;;;;;;4972538;28;20029;-70
2024/01/22 08:04:39;;;;;;;6.47;4.55;;;;;;;;;;4972659;28;20096;-71
2024/01/22 08:07:06;;;;;;;6.43;4.40;;;;;;;;;;4972293;28;20705;-70
2024/01/22 08:09:32;;;;;;;7.65;4.70;;;;;;;;;;4972261;28;20031;-71
2024/01/22 08:11:58;;;;;;;6.05;4.20;;;;;;;;;;4971833;28;20054;-70
2024/01/22 08:14:24;;;;;;;5.82;4.50;;;;;;;;;;4972325;28;20034;-69
2024/01/22 08:16:51;;;;;;;7.55;4.40;;;;;;;;;;4972185;28;20402;-71
2024/01/22 08:19:17;;;;;;;6.15;4.50;;;;;;;;;;4972469;28;20027;-70
2024/01/22 08:21:43;;;;;;;6.90;4.60;;;;;;;;;;4971624;28;20034;-71
2024/01/22 08:24:09;;;;;;;6.18;4.85;;;;;;;;;;4971942;28;20054;-71
2024/01/22 08:26:36;;;;;;;8.57;4.80;;;;;;;;;;4972097;28;20608;-69
2024/01/22 08:29:01;;;;;;;5.07;4.18;;;;;;;;;;4972331;28;20023;-72
2024/01/22 08:31:27;;;;;;;7.18;4.57;;;;;;;;;;4971685;28;20038;-71
2024/01/22 08:33:54;;;;;;;5.50;3.97;;;;;;;;;;4972508;28;20110;-71
2024/01/22 08:36:20;;;;;;;8.18;4.25;;;;;;;;;;4974771;28;20105;-71
2024/01/22 08:38:46;;;;;;;5.07;3.85;;;;;;;;;;4974515;28;20090;-71
2024/01/22 08:41:12;;;;;;;7.93;5.10;;;;;;;;;;4974809;28;20030;-69
2024/01/22 08:43:38;;;;;;;5.65;4.22;;;;;;;;;;4974477;28;20034;-69
2024/01/22 08:46:04;;;;;;;5.05;4.03;;;;;;;;;;4973957;28;20023;-68
2024/01/22 08:48:30;;;;;;;6.38;3.90;;;;;;;;;;4972335;28;20035;-69
2024/01/22 08:50:57;;;;;;;5.88;4.07;;;;;;;;;;4971623;28;20027;-68
2024/01/22 08:53:23;;;;;;;5.78;3.72;;;;;;;;;;4971949;28;20102;-68
2024/01/22 08:55:49;;;;;;;4.85;3.67;;;;;;;;;;4972271;28;20039;-68
2024/01/22 08:58:15;;;;;;;4.35;3.65;;;;;;;;;;4971781;28;20038;-68
2024/01/22 09:00:41;;;;;;;5.43;4.10;;;;;;;;;;4971705;28;20054;-71
2024/01/22 09:03:07;;;;;;;4.88;3.90;;;;;;;;;;4970827;28;20034;-71
2024/01/22 09:05:34;;;;;;;6.15;4.00;;;;;;;;;;4972210;28;20109;-69
2024/01/22 09:08:00;;;;;;;5.72;3.40;;;;;;;;;;4971990;28;20032;-70
2024/01/22 09:10:26;;;;;;;4.88;3.65;;;;;;;;;;4971492;28;20031;-69
2024/01/22 09:12:56;;;;;;;5.35;3.90;;;;;;;;;;4971971;28;20165;-69
2024/01/22 09:15:22;;;;;;;5.63;4.30;;;;;;;;;;4971755;28;20027;-69
2024/01/22 09:17:48;;;;;;;3.95;3.08;;;;;;;;;;4971966;28;20037;-69
2024/01/22 09:20:15;;;;;;;4.70;3.72;;;;;;;;;;4971113;28;20029;-69
2024/01/22 09:22:41;;;;;;;4.68;3.70;;;;;;;;;;4971546;28;20402;-69
2024/01/22 09:25:08;;;;;;;4.97;3.80;;;;;;;;;;4971994;28;20038;-69
2024/01/22 09:27:34;;;;;;;6.18;3.50;;;;;;;;;;4971634;28;20054;-69
2024/01/22 09:30:00;;;;;;;4.22;3.47;;;;;;;;;;4970976;28;20033;-69
2024/01/22 09:32:26;;;;;;;4.20;3.42;;;;;;;;;;4971564;28;20030;-69
2024/01/22 09:34:52;;;;;;;4.75;3.58;;;;;;;;;;4971587;28;20078;-69
2024/01/22 09:37:18;;;;;;;4.82;3.63;;;;;;;;;;4974751;28;20053;-68
2024/01/22 09:39:45;;;;;;;5.80;3.90;;;;;;;;;;4974930;28;20546;-69
2024/01/22 09:42:14;;;;;;;4.22;3.60;;;;;;;;;;4973255;28;20118;-69
2024/01/22 09:44:45;;;;;;;4.28;3.33;;;;;;;;;;4975026;28;20090;-69
2024/01/22 09:47:11;;;;;;;5.00;4.00;;;;;;;;;;4974759;28;20110;-69
2024/01/22 09:49:37;;;;;;;4.78;3.60;;;;;;;;;;4974697;28;20053;-68
2024/01/22 09:52:04;;;;;;;4.18;3.53;;;;;;;;;;4974523;28;20398;-69
2024/01/22 09:54:31;;;;;;;4.18;3.22;;;;;;;;;;4974861;28;20026;-69
2024/01/22 09:57:02;;;;;;;4.88;3.80;;;;;;;;;;4974663;28;20039;-69
2024/01/22 09:59:28;;;;;;;;;;;;;;;;;;4975081;28;20050;-69
2024/01/22 10:01:54;;;;;;;3.95;3.20;;;;;;;;;;4974274;28;19956;-69
2024/01/22 10:04:23;;;;;;;5.68;3.47;;;;;;;;;;4974633;28;20110;-69
2024/01/22 10:06:49;;;;;;;5.03;3.58;;;;;;;;;;4974506;28;20030;-69
2024/01/22 10:09:17;;;;;;;4.18;3.17;;;;;;;;;;4974476;28;20034;-69
2024/01/22 10:11:43;;;;;;;3.58;3.20;;;;;;;;;;4973494;28;20154;-69
2024/01/22 10:14:09;;;;;;;4.25;3.13;;;;;;;;;;4974595;28;20062;-69
2024/01/22 10:16:39;;;;;;;2.97;2.67;;;;;;;;;;4974559;28;20115;-67
2024/01/22 10:19:07;;;;;;;4.00;3.50;;;;;;;;;;4974469;28;20034;-68
2024/01/22 10:21:37;;;;;;;4.13;3.20;;;;;;;;;;4973794;28;20081;-69
2024/01/22 10:24:04;;;;;;;4.57;3.10;;;;;;;;;;4974499;28;20035;-69
2024/01/22 10:26:31;;;;;;;3.85;3.13;;;;;;;;;;4974147;28;20114;-69
2024/01/22 10:29:13;;;;;;;4.05;3.00;;;;;;;;;;4974331;28;20019;-69
2024/01/22 10:31:59;;;;;;;2.92;2.63;;;;;;;;;;4973645;28;20042;-69
2024/01/22 10:34:28;;;;;;;5.55;2.88;;;;;;;;;;4973898;28;20034;-68
2024/01/22 10:37:26;;;;;;;8.05;2.97;;;;;;;;;;4974103;28;20034;-69
2024/01/22 10:40:01;;;;;;;5.57;2.53;;;;;;;;;;4961389;28;20039;-70
2024/01/22 10:42:27;;;;;;;4.18;2.60;;;;;;;;;;4974121;28;20523;-68
2024/01/22 10:44:53;;;;;;;4.07;2.72;;;;;;;;;;4974203;28;20034;-67
2024/01/22 10:47:19;;;;;;;2.90;2.38;;;;;;;;;;4973606;28;20029;-68
2024/01/22 10:49:46;;;;;;;5.90;2.75;;;;;;;;;;4973677;28;20073;-67
2024/01/22 10:52:13;;;;;;;5.30;2.63;;;;;;;;;;4973531;28;20019;-67
2024/01/22 10:54:40;;;;;;;5.47;2.83;;;;;;;;;;4973665;28;20678;-69
2024/01/22 10:57:10;;;;;;;4.95;2.97;;;;;;;;;;4972212;28;20046;-71
2024/01/22 10:59:37;;;;;;;10.07;3.67;;;;;;;;;;4973496;28;20027;-67
2024/01/22 11:02:21;;;;;;;3.97;2.45;;;;;;;;;;4973077;28;20041;-68
2024/01/22 11:04:49;;;;;;;6.40;3.05;;;;;;;;;;4973481;28;20391;-67
2024/01/22 11:07:17;;;;;;;10.80;2.90;;;;;;;;;;4973351;28;20038;-68
2024/01/22 11:09:44;;;;;;;3.97;2.63;;;;;;;;;;4973544;28;20102;-67
2024/01/22 11:12:10;;;;;;;4.70;2.60;;;;;;;;;;4971424;28;20050;-67
2024/01/22 11:14:38;;;;;;;3.47;2.63;;;;;;;;;;4973382;28;20023;-64
2024/01/22 11:17:06;;;;;;;4.20;2.70;;;;;;;;;;4973088;28;20049;-67
2024/01/22 11:19:32;;;;;;;3.38;2.33;;;;;;;;;;4972979;28;20026;-67
2024/01/22 11:21:58;;;;;;;4.72;2.50;;;;;;;;;;4972654;28;20034;-66
2024/01/22 11:24:24;;;;;;;3.35;2.38;;;;;;;;;;4973195;28;20033;-68
2024/01/22 11:26:53;;;;;;;3.47;2.38;;;;;;;;;;4972867;28;20035;-68
2024/01/22 11:29:26;;;;;;;3.80;2.40;;;;;;;;;;4972985;28;20029;-67
2024/01/22 11:31:52;;;;;;;2.97;2.00;;;;;;;;;;4972393;28;20114;-70
2024/01/22 11:34:36;;;;;;;2.95;2.40;;;;;;;;;;4972959;28;20038;-68
2024/01/22 11:37:03;;;;;;;2.78;2.13;;;;;;;;;;4972892;28;20041;-68
2024/01/22 11:39:35;;;;;;;5.55;2.20;;;;;;;;;;4972592;28;20514;-68
2024/01/22 11:42:23;;;;;;;3.17;2.08;;;;;;;;;;4972201;28;20110;-69
2024/01/22 11:44:49;;;;;;;3.05;2.10;;;;;;;;;;4978781;28;20121;-68
2024/01/22 11:47:16;;;;;;;6.65;2.30;;;;;;;;;;4989498;28;20018;-68
2024/01/22 11:49:42;;;;;;;3.25;1.90;;;;;;;;;;4972538;28;20034;-68
2024/01/22 11:52:14;;;;;;;2.65;1.85;;;;;;;;;;4977992;28;20030;-68
2024/01/22 11:55:00;;;;;;;2.60;2.00;;;;;;;;;;4991772;28;20030;-68
2024/01/22 11:57:27;;;;;;;1.98;1.63;;;;;;;;;;4991880;28;20041;-68
2024/01/22 11:59:59;;;;;;;2.85;2.10;;;;;;;;;;4989333;28;20030;-67
2024/01/22 12:02:25;;;;;;;3.45;1.92;;;;;;;;;;4972680;28;20376;-68
2024/01/22 12:05:06;;;;;;;3.70;1.55;;;;;;;;;;4987360;28;20030;-68
2024/01/22 12:07:36;;;;;;;3.47;1.75;;;;;;;;;;4990176;28;20368;-68
2024/01/22 12:10:04;;;;;;;2.30;1.60;;;;;;;;;;4990867;28;20022;-68
2024/01/22 12:12:30;;;;;;;3.42;1.80;;;;;;;;;;4991683;28;20022;-69
2024/01/22 12:14:59;;;;;;;2.55;1.88;;;;;;;;;;4991929;28;20084;-68
2024/01/22 12:17:26;;;;;;;1.88;1.50;;;;;;;;;;4989157;28;20045;-68
2024/01/22 12:19:54;;;;;;;2.28;1.75;;;;;;;;;;4982063;28;20027;-67
2024/01/22 12:22:20;;;;;;;1.98;1.50;;;;;;;;;;4979004;28;20027;-68
2024/01/22 12:25:07;;;;;;;2.28;1.63;;;;;;;;;;4972152;28;20427;-68
2024/01/22 12:27:33;;;;;;;2.15;1.55;;;;;;;;;;4989251;28;20022;-67
2024/01/22 12:30:08;;;;;;;1.30;1.10;;;;;;;;;;4989443;28;20032;-68
2024/01/22 12:32:35;;;;;;;1.65;1.27;;;;;;;;;;4991588;28;20030;-68
2024/01/22 12:35:01;;;;;;;1.85;1.55;;;;;;;;;;4979953;28;20097;-68
2024/01/22 12:37:28;;;;;;;1.38;1.27;;;;;;;;;;4972285;28;20037;-67
2024/01/22 12:40:07;;;;;;;2.03;1.10;;;;;;;;;;4971450;28;20093;-67
2024/01/22 12:42:33;;;;;;;1.30;1.20;;;;;;;;;;4971997;28;20031;-68
2024/01/22 12:45:00;;;;;;;1.20;1.10;;;;;;;;;;4971641;28;20332;-67
2024/01/22 12:47:27;;;;;;;2.72;1.10;;;;;;;;;;4971348;28;20483;-66
2024/01/22 12:49:53;;;;;;;1.17;1.05;;;;;;;;;;4971136;28;20545;-67
2024/01/22 12:52:22;;;;;;;1.10;1.00;;;;;;;;;;4985197;28;20023;-67
2024/01/22 12:54:48;;;;;;;1.48;1.10;;;;;;;;;;4991154;28;20092;-66
2024/01/22 12:57:14;;;;;;;1.35;0.93;;;;;;;;;;4990602;28;20042;-68
2024/01/22 12:59:40;;;;;;;1.33;1.20;;;;;;;;;;4991050;28;20038;-68
2024/01/22 13:02:06;;;;;;;1.33;1.10;;;;;;;;;;4990711;28;20030;-67
2024/01/22 13:04:32;;;;;;;1.05;0.95;;;;;;;;;;4991199;28;20030;-68
2024/01/22 13:06:58;;;;;;;1.27;1.08;;;;;;;;;;4991045;28;20034;-68
2024/01/22 13:09:24;;;;;;;1.20;1.10;;;;;;;;;;4990935;28;20523;-67
2024/01/22 13:11:51;;;;;;;0.98;0.80;;;;;;;;;;4993378;28;20061;-67
2024/01/22 13:14:17;;;;;;;0.75;0.75;;;;;;;;;;4994695;28;20065;-68
2024/01/22 13:16:43;;;;;;;1.40;1.30;;;;;;;;;;4994928;28;20030;-68
2024/01/22 13:19:09;;;;;;;3.38;1.30;;;;;;;;;;4994763;28;20509;-67
2024/01/22 13:21:35;;;;;;;1.58;0.93;;;;;;;;;;4993971;28;20022;-67
2024/01/22 13:24:01;;;;;;;1.55;0.95;;;;;;;;;;4994518;28;20062;-68
2024/01/22 13:26:28;;;;;;;1.75;1.00;;;;;;;;;;4980835;28;20070;-67
2024/01/22 13:28:54;;;;;;;1.15;0.77;;;;;;;;;;4975216;28;20114;-68
2024/01/22 13:31:20;;;;;;;6.72;2.10;;;;;;;;;;4974321;28;20464;-68
2024/01/22 13:33:46;;;;;;;6.13;1.88;;;;;;;;;;4975139;28;20027;-69
2024/01/22 13:36:12;;;;;;;6.25;1.75;;;;;;;;;;4974853;28;20031;-69
2024/01/22 13:38:41;;;;;;;4.20;1.45;;;;;;;;;;4974872;28;20483;-69
2024/01/22 13:41:07;;;;;;;10.05;1.83;;;;;;;;;;4973835;28;20174;-68
2024/01/22 13:43:33;;;;;;;2.75;1.35;;;;;;;;;;4974822;28;20042;-69
2024/01/22 13:46:00;;;;;;;2.45;1.40;;;;;;;;;;4974794;28;20479;-69
2024/01/22 13:48:26;;;;;;;2.28;1.35;;;;;;;;;;4974857;28;20030;-68
2024/01/22 13:50:53;;;;;;;2.50;1.40;;;;;;;;;;4973978;28;20038;-69
2024/01/22 13:53:19;;;;;;;4.30;1.40;;;;;;;;;;4974603;28;20023;-69
2024/01/22 13:55:45;;;;;;;1.90;1.27;;;;;;;;;;4974584;28;20026;-69
2024/01/22 13:58:11;;;;;;;1.80;1.17;;;;;;;;;;4974102;28;20089;-68
2024/01/22 14:00:37;;;;;;;2.78;0.98;;;;;;;;;;4973810;28;20062;-66
2024/01/22 14:03:07;;;;;;;1.98;1.00;;;;;;;;;;4974261;28;20117;-69
2024/01/22 14:05:33;;;;;;;2.75;1.13;;;;;;;;;;4974321;28;20044;-69
2024/01/22 14:08:03;;;;;;;2.20;0.95;;;;;;;;;;4974281;28;20086;-69
2024/01/22 14:10:29;;;;;;;1.97;1.03;;;;;;;;;;4974113;28;20171;-69
2024/01/22 14:12:55;;;;;;;2.50;1.17;;;;;;;;;;4974748;28;20022;-69
2024/01/22 14:15:21;;;;;;;1.45;1.00;;;;;;;;;;4974437;28;20074;-71
2024/01/22 14:17:47;;;;;;;2.67;1.00;;;;;;;;;;4973093;28;20022;-71
2024/01/22 14:20:14;;;;;;;1.00;0.90;;;;;;;;;;4973643;28;20505;-69
2024/01/22 14:22:40;;;;;;;1.33;0.55;;;;;;;;;;4973682;28;20122;-68
2024/01/22 14:25:10;;;;;;;8.32;2.15;;;;;;;;;;4976751;28;20023;-67
2024/01/22 14:27:36;;;;;;;4.35;1.50;;;;;;;;;;4993588;28;20105;-67
2024/01/22 14:30:03;;;;;;;12.05;2.00;;;;;;;;;;4992613;28;20437;-69